Time;durP1;ratioP1;P1;durP2;ratioP2;P2;SDS_P1;SDS_P2;PMS_P1;PMS_P2;Temp;Humidity;BMP_temperature;BMP_pressure;BME280_temperature;BME280_humidity;BME280_pressure;Samples;Min_cycle;Max_cycle;Signal;HPM_P1;HPM_P2
2023/10/27 00:01:35;;;;;;;;;;;;;;;;;;112395;211;43181;-43
2023/10/27 00:04:08;;;;;;;;;;;;;;;;;;112462;211;39987;-43
2023/10/27 00:06:42;;;;;;;;;;;;;;;;;;112448;211;40832;-43
2023/10/27 00:09:15;;;;;;;;;;;;;;;;;;112458;211;43006;-43
2023/10/27 00:11:47;;;;;;;;;;;;;;;;;;112369;211;43053;-44
2023/10/27 00:14:20;;;;;;;;;;;;;;;;;;112466;211;39860;-43
2023/10/27 00:16:59;;;;;;;;;;;;;;;;;;112435;211;39781;-43
2023/10/27 00:19:34;;;;;;;;;;;;;;;;;;112451;211;42567;-42
2023/10/27 00:22:10;;;;;;;;;;;;;;;;;;112416;211;41809;-44
2023/10/27 00:24:48;;;;;;;;;;;;;;;;;;112441;211;39142;-43
2023/10/27 00:27:23;;;;;;;;;;;;;;;;;;112468;211;41138;-43
2023/10/27 00:29:58;;;;;;;;;;;;;;;;;;112473;211;42595;-43
2023/10/27 00:32:32;;;;;;;;;;;;;;;;;;112390;211;41624;-43
2023/10/27 00:35:09;;;;;;;;;;;;;;;;;;112383;211;38854;-42
2023/10/27 00:37:43;;;;;;;;;;;;;;;;;;111748;211;893934;-43
2023/10/27 00:40:17;;;;;;;;;;;;;;;;;;112451;211;42910;-43
2023/10/27 00:42:56;;;;;;;;;;;;;;;;;;112405;211;41664;-44
2023/10/27 00:45:30;;;;;;;;;;;;;;;;;;112476;211;39780;-43
2023/10/27 00:48:04;;;;;;;;;;;;;;;;;;112445;211;39569;-43
2023/10/27 00:50:38;;;;;;;;;;;;;;;;;;112380;211;175692;-42
2023/10/27 00:53:13;;;;;;;;;;;;;;;;;;112446;211;42125;-43
2023/10/27 00:55:47;;;;;;;;;;;;;;;;;;112482;211;39156;-43
2023/10/27 00:58:25;;;;;;;;;;;;;;;;;;112427;211;39746;-43
2023/10/27 01:01:02;;;;;;;;;;;;;;;;;;112475;211;42832;-43
2023/10/27 01:03:37;;;;;;;;;;;;;;;;;;112401;211;41672;-43
2023/10/27 01:06:14;;;;;;;;;;;;;;;;;;112428;211;38713;-43
2023/10/27 01:08:50;;;;;;;;;;;;;;;;;;112427;211;39577;-44
2023/10/27 01:11:25;;;;;;;;;;;;;;;;;;112394;211;42542;-44
2023/10/27 01:14:02;;;;;;;;;;;;;;;;;;112387;211;47378;-44
2023/10/27 01:16:35;;;;;;;;;;;;;;;;;;112424;211;38994;-47
2023/10/27 01:19:12;;;;;;;;;;;;;;;;;;112419;211;39719;-43
2023/10/27 01:21:47;;;;;;;;;;;;;;;;;;112401;211;43142;-45
2023/10/27 01:24:19;;;;;;;;;;;;;;;;;;112457;211;175712;-45
2023/10/27 01:26:57;;;;;;;;;;;;;;;;;;112416;211;38771;-45
2023/10/27 01:29:30;;;;;;;;;;;;;;;;;;112465;211;39594;-44
2023/10/27 01:32:04;;;;;;;;;;;;;;;;;;112333;211;175738;-43
2023/10/27 01:34:39;;;;;;;;;;;;;;;;;;112555;211;47413;-44
2023/10/27 01:37:14;;;;;;;;;;;;;;;;;;112436;211;38753;-44
2023/10/27 01:39:49;;;;;;;;;;;;;;;;;;112435;211;39804;-44
2023/10/27 01:42:23;;;;;;;;;;;;;;;;;;112457;211;42956;-46
2023/10/27 01:44:59;;;;;;;;;;;;;;;;;;112436;211;47713;-45
2023/10/27 01:47:34;;;;;;;;;;;;;;;;;;112406;211;38673;-43
2023/10/27 01:50:10;;;;;;;;;;;;;;;;;;112493;211;39541;-46
2023/10/27 01:52:42;;;;;;;;;;;;;;;;;;112471;211;42929;-45
2023/10/27 01:55:16;;;;;;;;;;;;;;;;;;112394;211;47527;-44
2023/10/27 01:57:50;;;;;;;;;;;;;;;;;;112439;211;38850;-46
2023/10/27 02:00:28;;;;;;;;;;;;;;;;;;112443;211;39527;-47
2023/10/27 02:03:03;;;;;;;;;;;;;;;;;;112402;211;44035;-46
2023/10/27 02:05:41;;;;;;;;;;;;;;;;;;112409;211;47320;-43
2023/10/27 02:08:16;;;;;;;;;;;;;;;;;;112518;211;38699;-45
2023/10/27 02:10:51;;;;;;;;;;;;;;;;;;112448;211;39730;-43
2023/10/27 02:13:27;;;;;;;;;;;;;;;;;;112416;211;42894;-43
2023/10/27 02:15:59;;;;;;;;;;;;;;;;;;112421;211;41677;-44
2023/10/27 02:18:33;;;;;;;;;;;;;;;;;;112307;211;192211;-43
2023/10/27 02:21:08;;;;;;;;;;;;;;;;;;112447;211;39657;-43
2023/10/27 02:23:42;;;;;;;;;;;;;;;;;;112408;211;43177;-43
2023/10/27 02:26:16;;;;;;;;;;;;;;;;;;112383;211;48095;-43
2023/10/27 02:28:51;;;;;;;;;;;;;;;;;;112313;211;175685;-43
2023/10/27 02:31:28;;;;;;;;;;;;;;;;;;112427;211;39602;-43
2023/10/27 02:34:02;;;;;;;;;;;;;;;;;;112382;211;42785;-43
2023/10/27 02:36:37;;;;;;;;;;;;;;;;;;112425;211;49113;-43
2023/10/27 02:39:10;;;;;;;;;;;;;;;;;;112464;211;38872;-43
2023/10/27 02:41:45;;;;;;;;;;;;;;;;;;112477;211;39683;-44
2023/10/27 02:44:22;;;;;;;;;;;;;;;;;;112468;211;42541;-44
2023/10/27 02:46:59;;;;;;;;;;;;;;;;;;112432;211;48096;-44
2023/10/27 02:49:35;;;;;;;;;;;;;;;;;;112421;211;38844;-43
2023/10/27 02:52:11;;;;;;;;;;;;;;;;;;112483;211;39651;-45
2023/10/27 02:54:47;;;;;;;;;;;;;;;;;;111956;211;522787;-45
2023/10/27 02:57:22;;;;;;;;;;;;;;;;;;112456;211;41362;-43
2023/10/27 02:59:57;;;;;;;;;;;;;;;;;;112446;211;38835;-45
2023/10/27 03:02:31;;;;;;;;;;;;;;;;;;112377;211;175281;-43
2023/10/27 03:05:08;;;;;;;;;;;;;;;;;;112424;211;42623;-43
2023/10/27 03:07:41;;;;;;;;;;;;;;;;;;112489;211;41799;-44
2023/10/27 03:10:17;;;;;;;;;;;;;;;;;;112488;211;38968;-46
2023/10/27 03:12:49;;;;;;;;;;;;;;;;;;112496;211;39561;-44
2023/10/27 03:15:23;;;;;;;;;;;;;;;;;;112403;211;42823;-44
2023/10/27 03:18:00;;;;;;;;;;;;;;;;;;112453;211;41783;-47
2023/10/27 03:20:35;;;;;;;;;;;;;;;;;;112438;211;38688;-47
2023/10/27 03:23:11;;;;;;;;;;;;;;;;;;112467;211;39757;-45
2023/10/27 03:25:48;;;;;;;;;;;;;;;;;;112402;211;44020;-45
2023/10/27 03:28:23;;;;;;;;;;;;;;;;;;112468;211;41984;-47
2023/10/27 03:30:56;;;;;;;;;;;;;;;;;;112490;211;40143;-43
2023/10/27 03:33:29;;;;;;;;;;;;;;;;;;112443;211;39372;-44
2023/10/27 03:36:01;;;;;;;;;;;;;;;;;;112411;211;42944;-44
2023/10/27 03:38:35;;;;;;;;;;;;;;;;;;112407;211;42021;-44
2023/10/27 03:41:08;;;;;;;;;;;;;;;;;;112427;211;40403;-43
2023/10/27 03:43:44;;;;;;;;;;;;;;;;;;112436;211;40089;-43
2023/10/27 03:46:18;;;;;;;;;;;;;;;;;;112435;211;42719;-44
2023/10/27 03:48:52;;;;;;;;;;;;;;;;;;112474;211;41663;-43
2023/10/27 03:51:25;;;;;;;;;;;;;;;;;;112431;211;39118;-44
2023/10/27 03:53:59;;;;;;;;;;;;;;;;;;112448;211;40975;-43
2023/10/27 03:56:34;;;;;;;;;;;;;;;;;;112384;211;42717;-43
2023/10/27 03:59:10;;;;;;;;;;;;;;;;;;112322;211;175689;-44
2023/10/27 04:01:42;;;;;;;;;;;;;;;;;;112459;211;38835;-43
2023/10/27 04:04:15;;;;;;;;;;;;;;;;;;112480;211;39672;-45
2023/10/27 04:06:50;;;;;;;;;;;;;;;;;;112359;211;42812;-43
2023/10/27 04:09:22;;;;;;;;;;;;;;;;;;112400;211;194968;-43
2023/10/27 04:11:55;;;;;;;;;;;;;;;;;;112482;211;38666;-43
2023/10/27 04:14:34;;;;;;;;;;;;;;;;;;112462;211;39392;-43
2023/10/27 04:17:07;;;;;;;;;;;;;;;;;;112456;211;42731;-43
2023/10/27 04:19:43;;;;;;;;;;;;;;;;;;112493;211;41774;-45
2023/10/27 04:22:19;;;;;;;;;;;;;;;;;;112511;211;39803;-44
2023/10/27 04:24:52;;;;;;;;;;;;;;;;;;112413;211;39553;-43
2023/10/27 04:27:28;;;;;;;;;;;;;;;;;;112385;211;42939;-45
2023/10/27 04:30:00;;;;;;;;;;;;;;;;;;112419;211;41666;-43
2023/10/27 04:32:36;;;;;;;;;;;;;;;;;;112439;211;38667;-44
2023/10/27 04:35:13;;;;;;;;;;;;;;;;;;112453;211;39938;-44
2023/10/27 04:37:46;;;;;;;;;;;;;;;;;;112452;211;42939;-45
2023/10/27 04:40:25;;;;;;;;;;;;;;;;;;112446;211;41660;-46
2023/10/27 04:43:01;;;;;;;;;;;;;;;;;;112494;211;38461;-44
2023/10/27 04:45:37;;;;;;;;;;;;;;;;;;112446;211;39797;-44
2023/10/27 04:48:17;;;;;;;;;;;;;;;;;;112429;211;42568;-45
2023/10/27 04:50:58;;;;;;;;;;;;;;;;;;112437;211;41631;-44
2023/10/27 04:53:32;;;;;;;;;;;;;;;;;;112368;211;38704;-44
2023/10/27 04:56:08;;;;;;;;;;;;;;;;;;112469;211;39825;-45
2023/10/27 04:58:42;;;;;;;;;;;;;;;;;;112338;211;42774;-45
2023/10/27 05:01:24;;;;;;;;;;;;;;;;;;112409;211;41983;-44
2023/10/27 05:04:03;;;;;;;;;;;;;;;;;;112469;211;38749;-45
2023/10/27 05:06:38;;;;;;;;;;;;;;;;;;112441;211;39445;-44
2023/10/27 05:09:12;;;;;;;;;;;;;;;;;;112440;211;42557;-46
2023/10/27 05:11:48;;;;;;;;;;;;;;;;;;112456;211;41638;-44
2023/10/27 05:14:21;;;;;;;;;;;;;;;;;;112345;211;175277;-45
2023/10/27 05:16:56;;;;;;;;;;;;;;;;;;112472;211;39755;-45
2023/10/27 05:19:35;;;;;;;;;;;;;;;;;;112417;211;44083;-47
2023/10/27 05:22:12;;;;;;;;;;;;;;;;;;112449;211;41758;-44
2023/10/27 05:24:44;;;;;;;;;;;;;;;;;;112460;211;38692;-43
2023/10/27 05:27:19;;;;;;;;;;;;;;;;;;112321;211;175672;-44
2023/10/27 05:29:54;;;;;;;;;;;;;;;;;;112472;211;42933;-44
2023/10/27 05:32:33;;;;;;;;;;;;;;;;;;112428;211;41419;-44
2023/10/27 05:35:09;;;;;;;;;;;;;;;;;;112308;211;38599;-44
2023/10/27 05:37:41;;;;;;;;;;;;;;;;;;112325;211;192773;-44
2023/10/27 05:40:16;;;;;;;;;;;;;;;;;;112350;211;48540;-46
2023/10/27 05:42:53;;;;;;;;;;;;;;;;;;112448;211;41832;-43
2023/10/27 05:45:26;;;;;;;;;;;;;;;;;;112506;211;41285;-44
2023/10/27 05:48:00;;;;;;;;;;;;;;;;;;112452;211;39622;-47
2023/10/27 05:50:38;;;;;;;;;;;;;;;;;;112410;211;49217;-45
2023/10/27 05:53:12;;;;;;;;;;;;;;;;;;112439;211;41568;-46
2023/10/27 05:55:51;;;;;;;;;;;;;;;;;;112488;211;39982;-46
2023/10/27 05:58:30;;;;;;;;;;;;;;;;;;112461;211;40883;-45
2023/10/27 06:01:04;;;;;;;;;;;;;;;;;;112463;211;50244;-43
2023/10/27 06:03:36;;;;;;;;;;;;;;;;;;112516;211;41417;-45
2023/10/27 06:06:13;;;;;;;;;;;;;;;;;;112479;211;38514;-48
2023/10/27 06:08:53;;;;;;;;;;;;;;;;;;112418;211;39546;-48
2023/10/27 06:11:25;;;;;;;;;;;;;;;;;;112443;211;48934;-47
2023/10/27 06:14:00;;;;;;;;;;;;;;;;;;112500;211;41490;-47
2023/10/27 06:16:34;;;;;;;;;;;;;;;;;;112506;211;39973;-47
2023/10/27 06:19:07;;;;;;;;;;;;;;;;;;112425;211;39332;-43
2023/10/27 06:21:40;;;;;;;;;;;;;;;;;;112417;211;49106;-43
2023/10/27 06:24:15;;;;;;;;;;;;;;;;;;112485;211;42241;-43
2023/10/27 06:26:55;;;;;;;;;;;;;;;;;;112486;211;38738;-44
2023/10/27 06:29:30;;;;;;;;;;;;;;;;;;112375;211;39666;-41
2023/10/27 06:32:06;;;;;;;;;;;;;;;;;;112340;210;49246;-43
2023/10/27 06:34:38;;;;;;;;;;;;;;;;;;112492;210;41736;-40
2023/10/27 06:37:12;;;;;;;;;;;;;;;;;;112479;210;38415;-40
2023/10/27 06:39:46;;;;;;;;;;;;;;;;;;112387;210;39650;-43
2023/10/27 06:42:22;;;;;;;;;;;;;;;;;;112405;211;48911;-42
2023/10/27 06:44:57;;;;;;;;;;;;;;;;;;112417;210;41827;-44
2023/10/27 06:47:33;;;;;;;;;;;;;;;;;;113548;210;38902;-44
2023/10/27 06:50:07;;;;;;;;;;;;;;;;;;112277;210;39992;-44
2023/10/27 06:52:43;;;;;;;;;;;;;;;;;;112475;210;51406;-47
2023/10/27 06:55:21;;;;;;;;;;;;;;;;;;112365;210;41783;-45
2023/10/27 06:57:54;;;;;;;;;;;;;;;;;;112492;210;38693;-45
2023/10/27 07:00:29;;;;;;;;;;;;;;;;;;112404;210;39850;-48
2023/10/27 07:03:02;;;;;;;;;;;;;;;;;;112440;211;42830;-45
2023/10/27 07:05:45;;;;;;;;;;;;;;;;;;112445;210;41439;-47
2023/10/27 07:08:18;;;;;;;;;;;;;;;;;;112448;210;38763;-44
2023/10/27 07:10:59;;;;;;;;;;;;;;;;;;112350;210;39886;-45
2023/10/27 07:13:34;;;;;;;;;;;;;;;;;;112470;210;43879;-44
2023/10/27 07:16:08;;;;;;;;;;;;;;;;;;112454;210;41684;-45
2023/10/27 07:18:44;;;;;;;;;;;;;;;;;;112412;210;38533;-44
2023/10/27 07:21:20;;;;;;;;;;;;;;;;;;112423;210;39612;-44
2023/10/27 07:23:56;;;;;;;;;;;;;;;;;;112431;210;43014;-44
2023/10/27 07:26:32;;;;;;;;;;;;;;;;;;112391;211;40587;-44
2023/10/27 07:29:05;;;;;;;;;;;;;;;;;;112416;210;38655;-47
2023/10/27 07:31:40;;;;;;;;;;;;;;;;;;112411;210;39479;-46
2023/10/27 07:34:12;;;;;;;;;;;;;;;;;;112421;211;42998;-44
2023/10/27 07:36:47;;;;;;;;;;;;;;;;;;112386;211;41857;-45
2023/10/27 07:39:24;;;;;;;;;;;;;;;;;;112478;211;39016;-46
2023/10/27 07:42:00;;;;;;;;;;;;;;;;;;112404;211;39264;-48
2023/10/27 07:44:32;;;;;;;;;;;;;;;;;;112456;211;44323;-47
2023/10/27 07:47:08;;;;;;;;;;;;;;;;;;112438;211;41766;-46
2023/10/27 07:49:41;;;;;;;;;;;;;;;;;;112467;211;38875;-42
2023/10/27 07:52:16;;;;;;;;;;;;;;;;;;112447;210;39905;-44
2023/10/27 07:54:50;;;;;;;;;;;;;;;;;;112419;210;44110;-43
2023/10/27 07:57:26;;;;;;;;;;;;;;;;;;112408;210;41812;-47
2023/10/27 07:59:58;;;;;;;;;;;;;;;;;;112390;210;38666;-39
2023/10/27 08:02:33;;;;;;;;;;;;;;;;;;112396;210;40012;-40
2023/10/27 08:05:11;;;;;;;;;;;;;;;;;;112433;210;42710;-34
2023/10/27 08:07:46;;;;;;;;;;;;;;;;;;112486;211;41820;-36
2023/10/27 08:10:20;;;;;;;;;;;;;;;;;;112383;210;38946;-37
2023/10/27 08:12:54;;;;;;;;;;;;;;;;;;112384;211;39347;-40
2023/10/27 08:15:33;;;;;;;;;;;;;;;;;;112401;211;42833;-39
2023/10/27 08:18:07;;;;;;;;;;;;;;;;;;112430;211;42960;-40
2023/10/27 08:20:42;;;;;;;;;;;;;;;;;;112421;211;38837;-41
2023/10/27 08:23:15;;;;;;;;;;;;;;;;;;112377;211;39946;-40
2023/10/27 08:25:53;;;;;;;;;;;;;;;;;;112427;210;44119;-40
2023/10/27 08:28:30;;;;;;;;;;;;;;;;;;112443;210;41669;-44
2023/10/27 08:31:11;;;;;;;;;;;;;;;;;;112439;211;39050;-44
2023/10/27 08:33:44;;;;;;;;;;;;;;;;;;112330;211;39652;-42
2023/10/27 08:36:19;;;;;;;;;;;;;;;;;;112433;211;42828;-42
2023/10/27 08:39:00;;;;;;;;;;;;;;;;;;112406;211;42988;-42
2023/10/27 08:41:32;;;;;;;;;;;;;;;;;;112464;211;38546;-42
2023/10/27 08:44:07;;;;;;;;;;;;;;;;;;112413;211;39605;-42
2023/10/27 08:46:56;;;;;;;;;;;;;;;;;;112449;211;43002;-44
2023/10/27 08:49:31;;;;;;;;;;;;;;;;;;112432;211;41912;-42
2023/10/27 08:52:10;;;;;;;;;;;;;;;;;;112376;211;40007;-44
2023/10/27 08:54:43;;;;;;;;;;;;;;;;;;112166;211;894270;-42
2023/10/27 08:57:20;;;;;;;;;;;;;;;;;;112289;211;42537;-42
2023/10/27 08:59:55;;;;;;;;;;;;;;;;;;112406;211;43083;-43
2023/10/27 09:02:33;;;;;;;;;;;;;;;;;;112363;211;38732;-45
2023/10/27 09:05:09;;;;;;;;;;;;;;;;;;112425;211;175679;-42
2023/10/27 09:07:42;;;;;;;;;;;;;;;;;;112431;211;42575;-43
2023/10/27 09:10:18;;;;;;;;;;;;;;;;;;112405;211;41686;-45
2023/10/27 09:12:59;;;;;;;;;;;;;;;;;;112434;211;38764;-44
2023/10/27 09:15:45;;;;;;;;;;;;;;;;;;112398;211;45394;-43
2023/10/27 09:18:19;;;;;;;;;;;;;;;;;;112332;211;44090;-44
2023/10/27 09:20:55;;;;;;;;;;;;;;;;;;112416;211;42792;-43
2023/10/27 09:23:28;;;;;;;;;;;;;;;;;;112436;211;39123;-42
2023/10/27 09:26:04;;;;;;;;;;;;;;;;;;112347;211;175747;-42
2023/10/27 09:28:40;;;;;;;;;;;;;;;;;;112446;211;43884;-42
2023/10/27 09:31:14;;;;;;;;;;;;;;;;;;112401;211;41677;-45
2023/10/27 09:33:48;;;;;;;;;;;;;;;;;;112406;211;39810;-43
2023/10/27 09:36:28;;;;;;;;;;;;;;;;;;112426;211;46005;-39
2023/10/27 09:39:04;;;;;;;;;;;;;;;;;;112306;210;42885;-48
2023/10/27 09:41:47;;;;;;;;;;;;;;;;;;112405;210;41842;-44
2023/10/27 09:44:22;;;;;;;;;;;;;;;;;;112408;210;40122;-42
2023/10/27 09:47:01;;;;;;;;;;;;;;;;;;112442;210;39779;-44
2023/10/27 09:49:34;;;;;;;;;;;;;;;;;;112362;210;43995;-43
2023/10/27 09:52:11;;;;;;;;;;;;;;;;;;112408;210;41691;-45
2023/10/27 09:54:44;;;;;;;;;;;;;;;;;;112400;210;38697;-42
2023/10/27 09:57:16;;;;;;;;;;;;;;;;;;112412;211;39739;-44
2023/10/27 09:59:51;;;;;;;;;;;;;;;;;;112521;210;43969;-46
2023/10/27 10:02:25;;;;;;;;;;;;;;;;;;112302;210;177227;-44
2023/10/27 10:05:03;;;;;;;;;;;;;;;;;;112419;210;38879;-43
2023/10/27 10:07:41;;;;;;;;;;;;;;;;;;112485;210;39571;-41
2023/10/27 10:10:23;;;;;;;;;;;;;;;;;;112374;210;42908;-43
2023/10/27 10:13:12;;;;;;;;;;;;;;;;;;112450;210;41691;-44
2023/10/27 10:15:53;;;;;;;;;;;;;;;;;;112392;210;39786;-45
2023/10/27 10:18:56;;;;;;;;;;;;;;;;;;112400;210;39805;-42
2023/10/27 10:21:38;;;;;;;;;;;;;;;;;;112367;210;175702;-45
2023/10/27 10:24:14;;;;;;;;;;;;;;;;;;112348;210;41658;-40
2023/10/27 10:27:10;;;;;;;;;;;;;;;;;;112371;210;38685;-40
2023/10/27 10:29:55;;;;;;;;;;;;;;;;;;112376;210;39616;-41
2023/10/27 10:32:38;;;;;;;;;;;;;;;;;;112429;210;42968;-42
2023/10/27 10:35:24;;;;;;;;;;;;;;;;;;112388;210;42920;-42
2023/10/27 10:37:56;;;;;;;;;;;;;;;;;;112428;210;38690;-40
2023/10/27 10:40:39;;;;;;;;;;;;;;;;;;112438;210;40945;-45
2023/10/27 10:43:23;;;;;;;;;;;;;;;;;;112324;211;175875;-44
2023/10/27 10:46:06;;;;;;;;;;;;;;;;;;112352;210;42387;-47
2023/10/27 10:48:44;;;;;;;;;;;;;;;;;;112402;210;38737;-43
2023/10/27 10:51:30;;;;;;;;;;;;;;;;;;112421;211;39652;-42
2023/10/27 10:54:13;;;;;;;;;;;;;;;;;;111345;210;894051;-40
2023/10/27 10:56:46;;;;;;;;;;;;;;;;;;112406;210;41686;-41
2023/10/27 10:59:25;;;;;;;;;;;;;;;;;;112431;210;38765;-41
2023/10/27 11:02:05;;;;;;;;;;;;;;;;;;112434;210;39264;-42
2023/10/27 11:04:37;;;;;;;;;;;;;;;;;;112417;210;43063;-43
2023/10/27 11:07:18;;;;;;;;;;;;;;;;;;112361;210;41642;-45
2023/10/27 11:09:53;;;;;;;;;;;;;;;;;;112459;210;39019;-46
2023/10/27 11:12:30;;;;;;;;;;;;;;;;;;112422;210;39761;-43
2023/10/27 11:15:04;;;;;;;;;;;;;;;;;;112429;211;44174;-47
2023/10/27 11:17:54;;;;;;;;;;;;;;;;;;112371;210;41641;-47
2023/10/27 11:20:38;;;;;;;;;;;;;;;;;;112464;211;38575;-48
2023/10/27 11:23:14;;;;;;;;;;;;;;;;;;112402;210;39597;-47
2023/10/27 11:25:55;;;;;;;;;;;;;;;;;;112422;210;43110;-46
2023/10/27 11:28:30;;;;;;;;;;;;;;;;;;112405;210;47424;-47
2023/10/27 11:31:12;;;;;;;;;;;;;;;;;;112394;210;38436;-48
2023/10/27 11:34:03;;;;;;;;;;;;;;;;;;112449;210;39620;-50
2023/10/27 11:36:38;;;;;;;;;;;;;;;;;;112403;210;42774;-47
2023/10/27 11:39:21;;;;;;;;;;;;;;;;;;112232;211;41669;-42
2023/10/27 11:42:00;;;;;;;;;;;;;;;;;;112430;210;39969;-45
2023/10/27 11:44:35;;;;;;;;;;;;;;;;;;112435;210;39599;-45
2023/10/27 11:47:08;;;;;;;;;;;;;;;;;;112405;210;44004;-43
2023/10/27 11:49:45;;;;;;;;;;;;;;;;;;112368;210;43082;-47
2023/10/27 11:52:21;;;;;;;;;;;;;;;;;;112451;210;38964;-47
2023/10/27 11:54:59;;;;;;;;;;;;;;;;;;112365;211;39719;-45
2023/10/27 11:57:35;;;;;;;;;;;;;;;;;;112303;210;42851;-45
2023/10/27 12:00:13;;;;;;;;;;;;;;;;;;112243;210;175298;-48
2023/10/27 12:02:50;;;;;;;;;;;;;;;;;;112443;211;38835;-47
2023/10/27 12:05:25;;;;;;;;;;;;;;;;;;112348;210;39804;-45
2023/10/27 12:07:58;;;;;;;;;;;;;;;;;;112319;210;42741;-47
2023/10/27 12:10:35;;;;;;;;;;;;;;;;;;112402;210;41743;-48
2023/10/27 12:13:11;;;;;;;;;;;;;;;;;;112197;210;175581;-46
2023/10/27 12:15:46;;;;;;;;;;;;;;;;;;112350;210;39667;-45
2023/10/27 12:18:23;;;;;;;;;;;;;;;;;;112353;210;42990;-48
2023/10/27 12:20:57;;;;;;;;;;;;;;;;;;112338;210;41642;-47
2023/10/27 12:23:30;;;;;;;;;;;;;;;;;;112431;210;38786;-45
2023/10/27 12:26:07;;;;;;;;;;;;;;;;;;112422;210;39574;-45
2023/10/27 12:28:42;;;;;;;;;;;;;;;;;;112422;210;42689;-47
2023/10/27 12:31:19;;;;;;;;;;;;;;;;;;112436;210;41654;-48
2023/10/27 12:33:55;;;;;;;;;;;;;;;;;;112418;211;39051;-45
2023/10/27 12:36:28;;;;;;;;;;;;;;;;;;112282;210;175575;-48
2023/10/27 12:39:05;;;;;;;;;;;;;;;;;;112360;210;42875;-48
2023/10/27 12:41:38;;;;;;;;;;;;;;;;;;112368;211;41646;-48
2023/10/27 12:44:11;;;;;;;;;;;;;;;;;;112428;210;38916;-48
2023/10/27 12:46:55;;;;;;;;;;;;;;;;;;112391;210;39614;-44
2023/10/27 12:49:29;;;;;;;;;;;;;;;;;;112384;210;44203;-44
2023/10/27 12:52:06;;;;;;;;;;;;;;;;;;112372;211;41972;-43
2023/10/27 12:54:45;;;;;;;;;;;;;;;;;;112412;210;39058;-42
2023/10/27 12:57:21;;;;;;;;;;;;;;;;;;112425;210;39301;-43
2023/10/27 12:59:55;;;;;;;;;;;;;;;;;;112379;210;42929;-48
2023/10/27 13:02:29;;;;;;;;;;;;;;;;;;112363;210;41832;-48
2023/10/27 13:05:07;;;;;;;;;;;;;;;;;;112377;210;39106;-45
2023/10/27 13:07:39;;;;;;;;;;;;;;;;;;112474;210;39736;-45
2023/10/27 13:10:15;;;;;;;;;;;;;;;;;;112367;210;43191;-44
2023/10/27 13:12:49;;;;;;;;;;;;;;;;;;112433;210;41930;-44
2023/10/27 13:15:25;;;;;;;;;;;;;;;;;;112497;210;38866;-44
2023/10/27 13:17:58;;;;;;;;;;;;;;;;;;112410;211;39882;-49
2023/10/27 13:20:39;;;;;;;;;;;;;;;;;;112388;210;42745;-51
2023/10/27 13:23:10;;;;;;;;;;;;;;;;;;112409;210;41628;-43
2023/10/27 13:25:44;;;;;;;;;;;;;;;;;;112476;210;38817;-45
2023/10/27 13:28:21;;;;;;;;;;;;;;;;;;112413;211;39724;-46
2023/10/27 13:30:55;;;;;;;;;;;;;;;;;;112243;210;175082;-43
2023/10/27 13:33:28;;;;;;;;;;;;;;;;;;112491;210;44242;-43
2023/10/27 13:36:08;;;;;;;;;;;;;;;;;;112426;210;39018;-48
2023/10/27 13:38:41;;;;;;;;;;;;;;;;;;112421;210;39693;-52
2023/10/27 13:41:18;;;;;;;;;;;;;;;;;;112415;210;43034;-50
2023/10/27 13:43:55;;;;;;;;;;;;;;;;;;112462;210;41906;-42
2023/10/27 13:46:33;;;;;;;;;;;;;;;;;;112416;210;38842;-44
2023/10/27 13:49:11;;;;;;;;;;;;;;;;;;112350;210;39585;-45
2023/10/27 13:51:45;;;;;;;;;;;;;;;;;;112429;210;43018;-46
2023/10/27 13:54:21;;;;;;;;;;;;;;;;;;112419;210;41743;-43
2023/10/27 13:56:57;;;;;;;;;;;;;;;;;;112423;210;39026;-52
2023/10/27 13:59:34;;;;;;;;;;;;;;;;;;112431;210;39528;-45
2023/10/27 14:02:10;;;;;;;;;;;;;;;;;;112435;210;43973;-48
2023/10/27 14:04:47;;;;;;;;;;;;;;;;;;112405;210;41755;-42
2023/10/27 14:07:20;;;;;;;;;;;;;;;;;;112404;210;39061;-47
2023/10/27 14:09:56;;;;;;;;;;;;;;;;;;112352;210;39556;-48
2023/10/27 14:12:33;;;;;;;;;;;;;;;;;;112445;210;42861;-44
2023/10/27 14:15:19;;;;;;;;;;;;;;;;;;112424;210;42106;-47
2023/10/27 14:17:54;;;;;;;;;;;;;;;;;;112422;210;38482;-48
2023/10/27 14:20:28;;;;;;;;;;;;;;;;;;112379;210;39737;-48
2023/10/27 14:23:01;;;;;;;;;;;;;;;;;;112447;210;42802;-44
2023/10/27 14:25:37;;;;;;;;;;;;;;;;;;112442;210;41738;-41
2023/10/27 14:28:12;;;;;;;;;;;;;;;;;;112400;210;38695;-50
2023/10/27 14:30:50;;;;;;;;;;;;;;;;;;112373;210;41007;-50
2023/10/27 14:33:23;;;;;;;;;;;;;;;;;;112492;211;43373;-47
2023/10/27 14:35:59;;;;;;;;;;;;;;;;;;112373;211;41701;-53
2023/10/27 14:38:44;;;;;;;;;;;;;;;;;;112374;211;39867;-48
2023/10/27 14:41:19;;;;;;;;;;;;;;;;;;112345;210;39578;-44
2023/10/27 14:43:55;;;;;;;;;;;;;;;;;;112439;210;44006;-41
2023/10/27 14:46:32;;;;;;;;;;;;;;;;;;112358;210;41669;-42
2023/10/27 14:49:11;;;;;;;;;;;;;;;;;;112327;210;38729;-50
2023/10/27 14:51:45;;;;;;;;;;;;;;;;;;112397;210;39720;-41
2023/10/27 14:54:19;;;;;;;;;;;;;;;;;;112409;210;44020;-43
2023/10/27 14:56:56;;;;;;;;;;;;;;;;;;112375;210;42981;-40
2023/10/27 14:59:32;;;;;;;;;;;;;;;;;;112232;211;38966;-39
2023/10/27 15:02:07;;;;;;;;;;;;;;;;;;112306;211;39600;-39
2023/10/27 15:04:43;;;;;;;;;;;;;;;;;;112309;211;42543;-40
2023/10/27 15:07:20;;;;;;;;;;;;;;;;;;112445;210;41980;-40
2023/10/27 15:09:52;;;;;;;;;;;;;;;;;;112491;210;38885;-46
2023/10/27 15:12:25;;;;;;;;;;;;;;;;;;112406;210;39953;-39
2023/10/27 15:15:04;;;;;;;;;;;;;;;;;;112407;210;43000;-40
2023/10/27 15:17:40;;;;;;;;;;;;;;;;;;112450;210;41689;-41
2023/10/27 15:20:19;;;;;;;;;;;;;;;;;;112371;210;38689;-44
2023/10/27 15:22:57;;;;;;;;;;;;;;;;;;112349;210;39818;-41
2023/10/27 15:25:36;;;;;;;;;;;;;;;;;;112373;210;43098;-39
2023/10/27 15:28:11;;;;;;;;;;;;;;;;;;112416;211;41629;-38
2023/10/27 15:30:45;;;;;;;;;;;;;;;;;;112420;211;38696;-37
2023/10/27 15:33:20;;;;;;;;;;;;;;;;;;112424;210;46849;-38
2023/10/27 15:36:09;;;;;;;;;;;;;;;;;;112393;210;43127;-38
2023/10/27 15:39:04;;;;;;;;;;;;;;;;;;112465;211;41975;-40
2023/10/27 15:41:40;;;;;;;;;;;;;;;;;;112436;210;38907;-45
2023/10/27 15:44:14;;;;;;;;;;;;;;;;;;112345;210;39416;-37
2023/10/27 15:47:09;;;;;;;;;;;;;;;;;;112389;210;43885;-39
2023/10/27 15:49:45;;;;;;;;;;;;;;;;;;112437;211;41656;-38
2023/10/27 15:52:26;;;;;;;;;;;;;;;;;;112412;211;39055;-37
2023/10/27 15:55:01;;;;;;;;;;;;;;;;;;112409;211;39894;-39
2023/10/27 15:57:37;;;;;;;;;;;;;;;;;;112442;211;43148;-36
2023/10/27 16:00:13;;;;;;;;;;;;;;;;;;112432;210;41637;-35
2023/10/27 16:02:51;;;;;;;;;;;;;;;;;;112336;210;38885;-36
2023/10/27 16:05:25;;;;;;;;;;;;;;;;;;112466;210;39745;-38
2023/10/27 16:07:58;;;;;;;;;;;;;;;;;;112363;211;44183;-38
2023/10/27 16:10:37;;;;;;;;;;;;;;;;;;112393;210;41876;-42
2023/10/27 16:13:16;;;;;;;;;;;;;;;;;;112274;210;39866;-37
2023/10/27 16:15:51;;;;;;;;;;;;;;;;;;112430;210;40711;-37
2023/10/27 16:18:25;;;;;;;;;;;;;;;;;;112360;210;43919;-40
2023/10/27 16:20:58;;;;;;;;;;;;;;;;;;112434;210;41679;-36
2023/10/27 16:23:34;;;;;;;;;;;;;;;;;;112401;210;38735;-38
2023/10/27 16:26:13;;;;;;;;;;;;;;;;;;112413;210;39595;-37
2023/10/27 16:28:53;;;;;;;;;;;;;;;;;;112390;210;42786;-39
2023/10/27 16:31:32;;;;;;;;;;;;;;;;;;112403;211;41644;-39
2023/10/27 16:34:06;;;;;;;;;;;;;;;;;;112453;210;38775;-40
2023/10/27 16:36:42;;;;;;;;;;;;;;;;;;112380;210;39709;-37
2023/10/27 16:39:25;;;;;;;;;;;;;;;;;;112315;210;42804;-40
2023/10/27 16:42:04;;;;;;;;;;;;;;;;;;112205;210;41700;-41
2023/10/27 16:44:45;;;;;;;;;;;;;;;;;;112321;210;38714;-41
2023/10/27 16:47:20;;;;;;;;;;;;;;;;;;112360;211;39551;-41
2023/10/27 16:50:00;;;;;;;;;;;;;;;;;;112326;211;42745;-44
2023/10/27 16:52:43;;;;;;;;;;;;;;;;;;112245;210;41862;-41
2023/10/27 16:55:29;;;;;;;;;;;;;;;;;;112314;211;44634;-41
2023/10/27 16:58:11;;;;;;;;;;;;;;;;;;112296;211;40800;-40
2023/10/27 17:00:51;;;;;;;;;;;;;;;;;;112288;211;42576;-42
2023/10/27 17:03:28;;;;;;;;;;;;;;;;;;112185;211;41704;-41
2023/10/27 17:06:03;;;;;;;;;;;;;;;;;;112247;211;38583;-41
2023/10/27 17:08:42;;;;;;;;;;;;;;;;;;112143;211;39707;-41
2023/10/27 17:11:24;;;;;;;;;;;;;;;;;;112171;211;43132;-41
2023/10/27 17:14:01;;;;;;;;;;;;;;;;;;112252;211;41375;-41
2023/10/27 17:16:40;;;;;;;;;;;;;;;;;;112159;211;175282;-40
2023/10/27 17:19:17;;;;;;;;;;;;;;;;;;112128;211;39626;-41
2023/10/27 17:21:54;;;;;;;;;;;;;;;;;;112259;211;42776;-40
2023/10/27 17:24:32;;;;;;;;;;;;;;;;;;112245;211;41673;-42
2023/10/27 17:27:08;;;;;;;;;;;;;;;;;;112305;211;38518;-40
2023/10/27 17:29:47;;;;;;;;;;;;;;;;;;112294;211;39725;-41
2023/10/27 17:32:29;;;;;;;;;;;;;;;;;;112282;211;42634;-41
2023/10/27 17:35:04;;;;;;;;;;;;;;;;;;112250;210;41783;-41
2023/10/27 17:37:40;;;;;;;;;;;;;;;;;;112303;210;38704;-41
2023/10/27 17:40:23;;;;;;;;;;;;;;;;;;112333;210;39317;-41
2023/10/27 17:43:02;;;;;;;;;;;;;;;;;;112301;210;43058;-41
2023/10/27 17:45:40;;;;;;;;;;;;;;;;;;112259;210;41671;-41